Time;durP1;ratioP1;P1;durP2;ratioP2;P2;SDS_P1;SDS_P2;PMS_P1;PMS_P2;Temp;Humidity;BMP_temperature;BMP_pressure;BME280_temperature;BME280_humidity;BME280_pressure;Samples;Min_cycle;Max_cycle;Signal;HPM_P1;HPM_P2
2021/03/18 00:00:28;;;;;;;17.52;10.43;;;;;;;1.53;71.04;101321.59;4995331;28;20512;-75
2021/03/18 00:02:55;;;;;;;17.80;10.65;;;;;;;1.47;70.91;101319.78;4994881;28;20445;-76
2021/03/18 00:05:23;;;;;;;17.45;10.77;;;;;;;1.42;70.76;101320.47;4995023;28;20059;-76
2021/03/18 00:07:50;;;;;;;18.20;11.35;;;;;;;1.31;70.72;101319.38;4994967;28;20058;-76
2021/03/18 00:10:17;;;;;;;14.82;10.50;;;;;;;1.29;70.80;101315.19;4994787;28;20069;-76
2021/03/18 00:12:45;;;;;;;16.80;10.65;;;;;;;1.32;71.23;101320.19;4994390;28;20066;-76
2021/03/18 00:15:13;;;;;;;17.95;10.52;;;;;;;1.31;71.38;101321.28;4995532;28;20057;-76
2021/03/18 00:17:40;;;;;;;19.10;10.93;;;;;;;1.31;71.71;101313.03;5005445;28;20465;-76
2021/03/18 00:20:11;;;;;;;17.65;11.38;;;;;;;1.30;71.50;101316.84;5010564;28;20057;-76
2021/03/18 00:22:41;;;;;;;20.15;11.02;;;;;;;1.33;71.77;101319.13;4994716;28;20510;-76
2021/03/18 00:25:13;;;;;;;17.90;11.02;;;;;;;1.30;71.56;101323.19;4995354;28;20062;-76
2021/03/18 00:27:41;;;;;;;20.20;12.23;;;;;;;1.34;71.61;101323.53;4994215;28;20247;-76
2021/03/18 00:30:09;;;;;;;23.30;12.07;;;;;;;1.31;71.91;101321.28;4994912;28;20067;-75
2021/03/18 00:32:37;;;;;;;21.65;13.35;;;;;;;1.34;71.77;101315.31;4994419;28;20396;-76
2021/03/18 00:35:05;;;;;;;20.02;13.40;;;;;;;1.29;71.64;101313.25;4994152;28;20054;-76
2021/03/18 00:37:34;;;;;;;21.00;12.77;;;;;;;1.31;72.13;101315.78;4994131;28;20058;-76
2021/03/18 00:40:01;;;;;;;23.23;12.02;;;;;;;1.28;71.71;101316.22;4994711;28;20050;-76
2021/03/18 00:42:28;;;;;;;22.90;13.43;;;;;;;1.23;71.75;101316.94;4993851;28;20061;-76
2021/03/18 00:44:55;;;;;;;26.30;13.50;;;;;;;1.23;71.85;101324.34;4994195;28;20069;-76
2021/03/18 00:47:22;;;;;;;22.67;13.05;;;;;;;1.21;71.94;101319.91;4994689;28;20395;-76
2021/03/18 00:49:49;;;;;;;22.85;13.23;;;;;;;1.19;71.55;101315.72;4994025;28;20065;-76
2021/03/18 00:52:15;;;;;;;22.38;12.95;;;;;;;1.16;71.37;101319.78;4994054;28;20101;-75
2021/03/18 00:54:43;;;;;;;23.90;12.90;;;;;;;1.12;71.88;101325.97;4994151;28;20401;-75
2021/03/18 00:57:10;;;;;;;22.27;13.02;;;;;;;1.11;71.91;101318.78;4993812;28;20069;-76
2021/03/18 00:59:37;;;;;;;24.27;13.00;;;;;;;1.14;71.45;101323.81;4994057;28;20057;-76
2021/03/18 01:02:03;;;;;;;22.58;13.07;;;;;;;1.12;71.66;101324.03;4994308;28;20058;-76
2021/03/18 01:04:30;;;;;;;30.77;14.77;;;;;;;1.11;71.89;101327.84;4994028;28;20058;-76
2021/03/18 01:06:57;;;;;;;24.05;14.00;;;;;;;1.13;72.34;101333.94;4994058;28;20495;-76
2021/03/18 01:09:24;;;;;;;25.15;12.80;;;;;;;1.17;72.94;101324.19;4993420;28;20050;-76
2021/03/18 01:11:51;;;;;;;24.23;12.75;;;;;;;1.18;73.06;101336.00;4994270;28;20476;-76
2021/03/18 01:14:18;;;;;;;19.70;12.57;;;;;;;1.23;73.07;101333.41;4993494;28;20062;-76
2021/03/18 01:16:48;;;;;;;23.80;13.20;;;;;;;1.29;73.23;101324.25;4996749;28;20053;-76
2021/03/18 01:19:16;;;;;;;24.90;13.30;;;;;;;1.32;72.82;101326.50;5013399;28;20057;-76
2021/03/18 01:21:45;;;;;;;21.27;12.27;;;;;;;1.33;72.51;101332.84;5013291;28;20395;-76
2021/03/18 01:24:13;;;;;;;23.23;12.80;;;;;;;1.36;72.39;101335.97;5006256;28;20061;-76
2021/03/18 01:26:40;;;;;;;23.08;12.55;;;;;;;1.35;72.22;101323.31;4993769;28;20065;-76
2021/03/18 01:29:11;;;;;;;17.77;12.27;;;;;;;1.36;72.30;101337.88;4993310;28;20504;-76
2021/03/18 01:31:38;;;;;;;16.67;10.93;;;;;;;1.35;72.15;101330.72;4993448;28;20059;-76
2021/03/18 01:34:08;;;;;;;17.63;10.38;;;;;;;1.32;71.53;101331.16;4993596;28;20084;-76
2021/03/18 01:36:36;;;;;;;17.55;10.90;;;;;;;1.33;71.34;101321.88;4993145;28;20074;-76
2021/03/18 01:39:05;;;;;;;19.90;11.38;;;;;;;1.32;71.52;101321.03;4993548;28;20062;-76
2021/03/18 01:41:32;;;;;;;16.98;10.93;;;;;;;1.31;71.69;101332.25;4993329;28;20051;-76
2021/03/18 01:43:59;;;;;;;20.10;11.75;;;;;;;1.33;71.88;101322.72;4993185;28;20058;-76
2021/03/18 01:46:26;;;;;;;19.45;11.30;;;;;;;1.33;72.08;101321.88;4993045;28;20066;-76
2021/03/18 01:48:53;;;;;;;19.52;12.20;;;;;;;1.35;72.55;101314.25;4993116;28;20058;-76
2021/03/18 01:51:21;;;;;;;19.23;12.05;;;;;;;1.38;72.16;101316.53;4992938;28;20073;-76
2021/03/18 01:53:48;;;;;;;27.33;13.02;;;;;;;1.45;72.05;101319.16;4993273;28;20062;-76
2021/03/18 01:56:15;;;;;;;20.95;12.13;;;;;;;1.45;72.70;101322.78;5003878;28;20058;-76
2021/03/18 01:58:44;;;;;;;24.25;13.38;;;;;;;1.49;72.76;101314.88;5012629;28;20061;-76
2021/03/18 02:01:13;;;;;;;23.83;13.05;;;;;;;1.50;72.29;101322.91;5013216;28;20065;-76
2021/03/18 02:03:41;;;;;;;20.63;11.88;;;;;;;1.53;72.23;101316.09;5012580;28;20204;-76
2021/03/18 02:06:08;;;;;;;21.10;12.50;;;;;;;1.51;72.12;101318.25;5012295;28;20068;-76
2021/03/18 02:08:36;;;;;;;17.85;11.57;;;;;;;1.52;72.20;101315.25;5016177;28;20058;-76
2021/03/18 02:11:03;;;;;;;17.27;11.50;;;;;;;1.54;71.91;101313.13;5016225;28;20058;-76
2021/03/18 02:13:30;;;;;;;21.92;12.75;;;;;;;1.50;71.39;101309.16;5016162;28;20060;-76
2021/03/18 02:16:00;;;;;;;17.60;11.70;;;;;;;1.54;71.06;101306.81;5016852;28;20068;-76
2021/03/18 02:18:37;;;;;;;21.80;12.70;;;;;;;1.54;71.62;101304.06;5015987;28;20054;-76
2021/03/18 02:21:30;;;;;;;19.48;13.05;;;;;;;1.52;71.39;101301.53;4997374;28;20081;-76
2021/03/18 02:24:18;;;;;;;22.20;13.02;;;;;;;1.50;71.02;101291.88;4998625;28;20054;-76
2021/03/18 02:27:38;;;;;;;22.30;12.48;;;;;;;1.47;70.98;101289.56;4996529;28;20069;-76
2021/03/18 02:30:46;;;;;;;20.67;13.18;;;;;;;1.37;71.53;101276.44;4996565;28;20057;-76
2021/03/18 02:33:59;;;;;;;21.58;13.50;;;;;;;1.35;71.58;101275.84;4996517;28;20527;-76
2021/03/18 02:36:40;;;;;;;21.45;13.43;;;;;;;1.29;71.59;101274.84;4996014;28;20058;-76
2021/03/18 02:39:12;;;;;;;20.05;13.60;;;;;;;1.28;71.17;101267.69;4996561;28;20050;-76
2021/03/18 02:41:44;;;;;;;20.35;12.60;;;;;;;1.27;71.08;101267.91;4995998;28;20054;-76
2021/03/18 02:44:16;;;;;;;21.33;13.52;;;;;;;1.25;71.19;101264.56;4995974;28;20065;-76
2021/03/18 02:46:44;;;;;;;19.83;12.88;;;;;;;1.21;71.74;101267.75;4997143;28;20070;-76
2021/03/18 02:49:13;;;;;;;24.65;13.60;;;;;;;1.19;71.79;101267.16;5008252;28;20046;-76
2021/03/18 02:51:43;;;;;;;23.85;13.35;;;;;;;1.21;71.94;101265.03;5016217;28;20058;-76
2021/03/18 02:54:13;;;;;;;25.45;12.85;;;;;;;1.23;71.49;101273.03;5016055;28;20062;-76
2021/03/18 02:56:44;;;;;;;21.50;13.07;;;;;;;1.23;71.48;101261.22;4996252;28;20058;-76
2021/03/18 02:59:14;;;;;;;21.80;13.30;;;;;;;1.23;71.78;101262.06;4996302;28;20488;-76
2021/03/18 03:01:47;;;;;;;21.77;12.77;;;;;;;1.25;71.23;101262.66;4996380;28;20054;-76
2021/03/18 03:04:15;;;;;;;19.65;12.23;;;;;;;1.23;71.16;101256.56;4996083;28;20069;-76
2021/03/18 03:06:43;;;;;;;23.58;13.02;;;;;;;1.21;70.86;101261.44;4996974;28;20054;-75
2021/03/18 03:09:11;;;;;;;25.58;13.07;;;;;;;1.18;70.89;101261.94;5001210;28;20415;-76
2021/03/18 03:11:40;;;;;;;23.67;14.05;;;;;;;1.10;71.09;101257.59;5016595;28;20057;-76
2021/03/18 03:14:09;;;;;;;19.75;12.93;;;;;;;1.03;71.52;101256.84;5016063;28;20072;-76
2021/03/18 03:16:36;;;;;;;24.13;13.90;;;;;;;0.99;71.17;101256.47;5015278;28;20050;-76
2021/03/18 03:19:04;;;;;;;18.63;12.73;;;;;;;0.93;71.36;101251.91;5014754;28;20060;-75
2021/03/18 03:21:32;;;;;;;20.35;13.35;;;;;;;0.88;71.50;101246.25;5015773;28;20121;-75
2021/03/18 03:24:01;;;;;;;21.17;13.98;;;;;;;0.85;71.30;101246.75;5015250;28;20057;-76
2021/03/18 03:26:28;;;;;;;26.42;13.88;;;;;;;0.85;71.60;101243.16;5015344;28;20157;-76
2021/03/18 03:28:57;;;;;;;19.10;12.73;;;;;;;0.84;71.39;101246.97;5015259;28;20095;-75
2021/03/18 03:31:24;;;;;;;21.75;13.95;;;;;;;0.77;71.35;101253.38;5014677;28;20065;-75
2021/03/18 03:33:51;;;;;;;19.98;13.90;;;;;;;0.73;71.79;101257.63;5014558;28;20068;-75
2021/03/18 03:36:20;;;;;;;21.83;13.80;;;;;;;0.73;71.43;101249.41;5014839;28;20050;-75
2021/03/18 03:38:47;;;;;;;22.13;13.55;;;;;;;0.74;71.66;101256.56;5014480;28;20069;-75
2021/03/18 03:41:15;;;;;;;23.02;13.60;;;;;;;0.75;71.22;101260.97;5015066;28;20487;-75
2021/03/18 03:43:48;;;;;;;18.30;12.57;;;;;;;0.75;71.22;101260.97;5015310;28;20349;-75
2021/03/18 03:46:15;;;;;;;21.33;13.20;;;;;;;0.73;71.05;101259.53;5014940;28;20416;-75
2021/03/18 03:48:42;;;;;;;20.55;13.95;;;;;;;0.70;71.19;101257.28;5014492;28;20054;-76
2021/03/18 03:51:12;;;;;;;21.77;13.75;;;;;;;0.64;71.94;101258.19;5014279;28;20068;-76
2021/03/18 03:53:45;;;;;;;26.25;14.55;;;;;;;0.67;72.04;101261.28;5014124;28;20073;-76
2021/03/18 03:56:23;;;;;;;25.48;14.57;;;;;;;0.67;71.81;101269.50;5014521;28;20091;-76
2021/03/18 03:58:52;;;;;;;23.10;14.65;;;;;;;0.71;71.83;101273.47;5014216;28;20066;-76
2021/03/18 04:01:28;;;;;;;20.83;14.30;;;;;;;0.78;71.68;101282.47;5014173;28;20068;-76
2021/03/18 04:04:02;;;;;;;25.38;14.43;;;;;;;0.81;72.09;101276.50;5013890;28;20435;-75
2021/03/18 04:06:35;;;;;;;24.88;15.15;;;;;;;0.87;72.35;101279.44;5014087;28;20058;-75
2021/03/18 04:09:03;;;;;;;25.27;13.95;;;;;;;0.96;72.87;101276.13;5013896;28;20069;-75
2021/03/18 04:11:33;;;;;;;23.10;13.43;;;;;;;1.10;72.93;101265.00;5014264;28;20054;-74
2021/03/18 04:14:01;;;;;;;21.40;12.43;;;;;;;1.21;73.00;101272.41;5014462;28;20054;-74
2021/03/18 04:16:29;;;;;;;20.17;11.98;;;;;;;1.36;72.82;101270.09;5013995;28;20077;-75
2021/03/18 04:18:58;;;;;;;22.55;13.27;;;;;;;1.52;72.57;101265.03;5013947;28;20069;-75
2021/03/18 04:21:26;;;;;;;19.02;11.48;;;;;;;1.62;71.37;101266.13;5014171;28;20069;-74
2021/03/18 04:23:55;;;;;;;21.08;12.40;;;;;;;1.70;71.47;101267.69;5013140;28;20054;-75
2021/03/18 04:26:22;;;;;;;19.38;12.57;;;;;;;1.76;71.43;101263.16;5013895;28;20062;-75
2021/03/18 04:28:50;;;;;;;20.08;10.95;;;;;;;1.85;71.17;101267.25;5013486;28;20054;-75
2021/03/18 04:31:17;;;;;;;15.82;11.18;;;;;;;1.90;70.11;101267.34;5013640;28;20054;-74
2021/03/18 04:33:45;;;;;;;19.15;11.95;;;;;;;1.98;70.67;101267.00;5013608;28;20069;-75
2021/03/18 04:36:12;;;;;;;20.55;11.98;;;;;;;1.98;70.41;101275.25;5013718;28;20057;-75
2021/03/18 04:38:40;;;;;;;20.75;12.30;;;;;;;2.07;71.06;101272.16;5013230;28;20050;-75
2021/03/18 04:41:08;;;;;;;19.20;12.02;;;;;;;2.11;71.45;101274.19;5013871;28;20136;-75
2021/03/18 04:43:38;;;;;;;16.63;11.65;;;;;;;2.22;70.61;101267.00;5014080;28;20435;-75
2021/03/18 04:46:06;;;;;;;;;;;;;;;2.24;70.42;101257.44;5014203;28;20062;-75
2021/03/18 04:48:35;;;;;;;16.23;11.27;;;;;;;2.33;69.86;101255.19;5013805;28;19928;-75
2021/03/18 04:51:04;;;;;;;15.48;10.90;;;;;;;2.38;70.44;101260.78;5013642;28;20381;-74
2021/03/18 04:53:32;;;;;;;16.98;11.93;;;;;;;2.47;69.97;101254.94;5013917;28;20054;-75
2021/03/18 04:55:59;;;;;;;17.52;12.13;;;;;;;2.55;69.88;101247.13;5013332;28;20072;-75
2021/03/18 04:58:27;;;;;;;19.77;12.18;;;;;;;2.56;69.95;101242.47;5012665;28;20069;-74
2021/03/18 05:00:55;;;;;;;20.52;12.43;;;;;;;2.56;70.34;101245.22;5013578;28;20054;-74
2021/03/18 05:03:23;;;;;;;17.00;11.95;;;;;;;2.61;70.04;101239.84;5013671;28;20065;-74
2021/03/18 05:05:51;;;;;;;19.15;13.27;;;;;;;2.66;70.80;101237.19;5013000;28;20606;-75
2021/03/18 05:08:22;;;;;;;20.25;13.05;;;;;;;2.72;70.43;101233.47;5013677;28;20392;-75
2021/03/18 05:10:50;;;;;;;19.67;12.90;;;;;;;2.80;71.13;101240.50;5013744;28;20053;-75
2021/03/18 05:13:17;;;;;;;18.08;13.73;;;;;;;2.85;70.38;101241.44;5014037;28;20066;-74
2021/03/18 05:15:45;;;;;;;22.52;14.95;;;;;;;2.93;71.07;101237.47;5013475;28;20065;-74
2021/03/18 05:18:13;;;;;;;19.15;12.73;;;;;;;2.94;70.53;101233.66;5013665;28;20058;-75
2021/03/18 05:20:43;;;;;;;18.05;12.63;;;;;;;3.01;70.27;101241.75;5013007;28;20050;-75
2021/03/18 05:23:11;;;;;;;22.97;12.97;;;;;;;3.08;70.47;101239.69;5013085;28;20057;-75
2021/03/18 05:25:39;;;;;;;18.75;13.38;;;;;;;3.11;70.25;101236.44;5012487;28;20472;-75
2021/03/18 05:28:07;;;;;;;21.75;14.70;;;;;;;3.18;69.38;101234.38;5013364;28;20068;-74
2021/03/18 05:30:34;;;;;;;22.67;14.48;;;;;;;3.22;69.70;101235.56;5013696;28;20523;-75
2021/03/18 05:33:02;;;;;;;21.63;13.90;;;;;;;3.28;69.85;101228.25;5013708;28;20060;-75
2021/03/18 05:35:29;;;;;;;18.50;12.60;;;;;;;3.33;69.54;101230.25;5013403;28;20062;-75
2021/03/18 05:37:57;;;;;;;16.77;10.77;;;;;;;3.37;68.82;101221.22;5013173;28;20054;-75
2021/03/18 05:40:24;;;;;;;19.30;12.73;;;;;;;3.40;67.95;101223.50;5012772;28;20058;-75
2021/03/18 05:42:52;;;;;;;17.80;13.07;;;;;;;3.39;68.46;101223.75;4995849;28;20054;-75
2021/03/18 05:45:20;;;;;;;20.00;12.13;;;;;;;3.40;68.62;101226.25;4997683;28;20419;-75
2021/03/18 05:47:49;;;;;;;20.38;12.50;;;;;;;3.38;68.28;101222.91;4997985;28;20054;-75
2021/03/18 05:50:18;;;;;;;19.40;13.27;;;;;;;3.37;68.12;101215.72;4997388;28;20054;-75
2021/03/18 05:52:45;;;;;;;35.47;14.15;;;;;;;3.40;68.38;101203.38;4997241;28;20492;-75
2021/03/18 05:55:15;;;;;;;20.45;13.98;;;;;;;3.47;68.25;101209.56;4996969;28;20074;-75
2021/03/18 05:57:42;;;;;;;17.88;12.70;;;;;;;3.53;68.35;101208.59;4997896;28;20239;-75
2021/03/18 06:00:14;;;;;;;20.13;13.45;;;;;;;3.65;67.82;101203.84;4997223;28;20057;-75
2021/03/18 06:02:41;;;;;;;23.85;14.20;;;;;;;3.72;67.40;101206.41;4997609;28;20062;-75
2021/03/18 06:05:11;;;;;;;23.08;13.75;;;;;;;3.78;67.36;101205.41;4997170;28;20058;-75
2021/03/18 06:07:39;;;;;;;22.25;14.05;;;;;;;3.82;67.60;101206.59;4994540;28;20054;-75
2021/03/18 06:10:07;;;;;;;18.27;14.05;;;;;;;3.90;67.15;101199.78;4990489;28;20062;-75
2021/03/18 06:12:37;;;;;;;19.88;14.25;;;;;;;3.81;67.20;101209.59;4975828;28;20062;-75
2021/03/18 06:15:06;;;;;;;21.83;14.55;;;;;;;3.88;67.31;101213.00;4989761;28;20058;-75
2021/03/18 06:17:33;;;;;;;17.90;12.68;;;;;;;3.96;67.70;101215.31;4994494;28;20054;-75
2021/03/18 06:20:03;;;;;;;24.13;14.48;;;;;;;4.09;67.11;101203.09;4995528;28;20076;-75
2021/03/18 06:22:33;;;;;;;19.40;13.35;;;;;;;4.18;66.90;101203.50;4977363;28;20059;-75
2021/03/18 06:25:00;;;;;;;17.63;13.50;;;;;;;4.24;67.00;101202.50;4994736;28;20054;-75
2021/03/18 06:27:27;;;;;;;20.27;13.98;;;;;;;4.26;66.85;101194.81;4997504;28;20399;-76
2021/03/18 06:29:57;;;;;;;20.55;14.45;;;;;;;4.31;66.25;101196.81;4996728;28;20058;-74
2021/03/18 06:32:24;;;;;;;;;;;;;;;4.21;66.95;101198.31;4993924;28;20058;-75
2021/03/18 06:34:53;;;;;;;20.60;13.85;;;;;;;4.29;67.06;101193.47;4986652;28;19921;-75
2021/03/18 06:37:38;;;;;;;24.20;14.00;;;;;;;4.36;66.58;101186.66;4994879;28;20042;-74
2021/03/18 06:40:17;;;;;;;22.05;14.73;;;;;;;4.44;66.12;101186.22;4997164;28;20065;-75
2021/03/18 06:42:54;;;;;;;23.77;15.90;;;;;;;4.32;66.38;101181.94;5013748;28;20054;-74
2021/03/18 06:45:22;;;;;;;21.92;14.95;;;;;;;4.50;66.17;101178.03;5017128;28;20054;-74
2021/03/18 06:47:54;;;;;;;23.63;15.63;;;;;;;4.60;66.16;101178.13;5017786;28;20076;-75
2021/03/18 06:50:25;;;;;;;20.95;15.10;;;;;;;4.66;65.41;101177.09;5017277;28;20054;-74
2021/03/18 06:52:52;;;;;;;20.48;15.65;;;;;;;4.77;65.18;101173.41;5016652;28;20057;-75
2021/03/18 06:55:27;;;;;;;23.45;15.82;;;;;;;4.90;65.05;101165.81;5017538;28;20415;-77
2021/03/18 06:58:13;;;;;;;20.13;15.18;;;;;;;5.14;64.55;101167.16;5015363;28;20415;-77
2021/03/18 07:00:43;;;;;;;21.25;16.10;;;;;;;5.16;64.07;101169.66;4997859;28;20047;-77
2021/03/18 07:03:10;;;;;;;18.42;14.50;;;;;;;5.23;64.13;101162.84;5006834;28;20487;-77
2021/03/18 07:05:39;;;;;;;20.45;14.55;;;;;;;5.29;63.50;101161.78;5018575;28;20061;-78
2021/03/18 07:08:07;;;;;;;20.63;14.85;;;;;;;5.28;63.67;101162.88;5014227;28;20440;-75
2021/03/18 07:10:36;;;;;;;21.50;14.43;;;;;;;5.55;63.00;101164.78;4998382;28;20065;-74
2021/03/18 07:13:19;;;;;;;17.23;12.93;;;;;;;6.66;60.26;101154.66;5006484;28;20065;-75
2021/03/18 07:15:49;;;;;;;15.38;11.80;;;;;;;7.55;56.93;101149.00;5017844;28;20085;-74
2021/03/18 07:18:16;;;;;;;15.25;11.27;;;;;;;8.23;54.76;101153.31;5016863;28;20061;-75
2021/03/18 07:21:00;;;;;;;18.38;12.18;;;;;;;8.08;54.03;101151.41;5016088;28;20062;-75
2021/03/18 07:23:39;;;;;;;16.75;12.48;;;;;;;8.08;54.78;101149.50;5016725;28;20061;-75
2021/03/18 07:26:17;;;;;;;18.33;12.57;;;;;;;8.67;52.48;101149.84;5018130;28;20062;-78
2021/03/18 07:28:46;;;;;;;14.63;11.93;;;;;;;9.28;52.77;101157.84;5014815;28;20070;-78
2021/03/18 07:31:15;;;;;;;16.88;11.27;;;;;;;9.43;51.83;101154.13;5009405;28;20065;-77
2021/03/18 07:33:43;;;;;;;14.20;11.63;;;;;;;9.11;52.64;101151.81;5019606;28;20053;-78
2021/03/18 07:36:11;;;;;;;17.25;11.93;;;;;;;8.96;53.12;101155.53;5020544;28;20476;-79
2021/03/18 07:38:39;;;;;;;18.52;12.57;;;;;;;8.94;52.59;101153.06;5018974;28;20062;-78
2021/03/18 07:41:11;;;;;;;14.80;11.68;;;;;;;8.89;52.67;101160.59;5018267;28;20403;-78
2021/03/18 07:43:41;;;;;;;18.75;13.98;;;;;;;9.00;52.65;101153.03;5006858;28;20407;-78
2021/03/18 07:46:11;;;;;;;18.13;12.23;;;;;;;9.08;53.56;101153.25;5005498;28;20058;-76
2021/03/18 07:48:39;;;;;;;14.43;11.70;;;;;;;9.08;52.31;101155.19;5022518;28;20062;-76
2021/03/18 07:51:07;;;;;;;15.85;12.38;;;;;;;8.90;52.49;101157.53;5001864;28;20042;-78
2021/03/18 07:53:35;;;;;;;16.92;12.68;;;;;;;8.78;52.58;101159.81;5008729;28;20077;-76
2021/03/18 07:56:02;;;;;;;14.55;12.07;;;;;;;8.76;53.35;101153.72;5001621;28;20061;-76
2021/03/18 07:58:42;;;;;;;15.32;11.73;;;;;;;8.65;53.46;101157.63;4998657;28;20069;-76
2021/03/18 08:01:34;;;;;;;22.63;13.30;;;;;;;8.47;53.86;101153.56;4995671;28;20065;-76
2021/03/18 08:04:03;;;;;;;17.58;12.75;;;;;;;8.30;53.98;101148.31;5006067;28;20500;-75
2021/03/18 08:06:50;;;;;;;15.80;12.32;;;;;;;8.23;54.34;101148.63;5009080;28;20068;-75
2021/03/18 08:09:36;;;;;;;18.77;14.07;;;;;;;8.18;54.75;101156.94;5003384;28;20049;-75
2021/03/18 08:12:04;;;;;;;18.52;12.98;;;;;;;8.22;54.12;101163.59;5010811;28;20054;-75
2021/03/18 08:14:31;;;;;;;20.42;13.70;;;;;;;8.34;54.66;101155.78;5012376;28;20068;-76
2021/03/18 08:16:58;;;;;;;20.33;13.93;;;;;;;8.43;54.48;101158.84;5003311;28;20488;-76
2021/03/18 08:19:40;;;;;;;18.30;13.82;;;;;;;8.42;53.65;101159.97;5008759;28;20064;-75
2021/03/18 08:22:28;;;;;;;17.98;13.93;;;;;;;8.62;53.64;101147.94;4995215;28;20061;-76
2021/03/18 08:25:15;;;;;;;16.75;13.60;;;;;;;8.91;52.61;101148.06;5008013;28;20058;-76
2021/03/18 08:27:41;;;;;;;17.05;14.00;;;;;;;9.29;51.81;101136.44;5001243;28;20065;-76
2021/03/18 08:30:20;;;;;;;17.75;13.25;;;;;;;9.51;50.96;101149.88;5006701;28;20051;-75
2021/03/18 08:32:47;;;;;;;18.48;13.77;;;;;;;9.45;50.87;101145.47;5010852;28;20072;-75
2021/03/18 08:35:25;;;;;;;16.58;13.20;;;;;;;9.67;50.88;101148.63;5006307;28;20058;-75
2021/03/18 08:37:55;;;;;;;20.92;13.60;;;;;;;9.79;50.33;101144.66;5012861;28;20061;-77
2021/03/18 08:40:30;;;;;;;17.80;13.25;;;;;;;9.78;50.02;101142.97;5013945;28;20570;-76
2021/03/18 08:43:03;;;;;;;18.60;14.18;;;;;;;10.18;49.52;101141.72;4993572;28;20066;-75
2021/03/18 08:45:41;;;;;;;17.88;12.70;;;;;;;11.08;47.23;101128.06;4989463;28;20046;-76
2021/03/18 08:48:19;;;;;;;16.40;13.32;;;;;;;11.36;46.65;101129.84;4988145;28;20066;-76
2021/03/18 08:50:56;;;;;;;18.80;13.75;;;;;;;11.96;44.59;101128.28;4978850;28;20050;-76
2021/03/18 08:53:32;;;;;;;16.23;13.38;;;;;;;12.70;43.76;101118.97;4974784;28;20062;-75
2021/03/18 08:55:59;;;;;;;17.45;13.63;;;;;;;12.82;43.09;101122.06;4991289;28;20062;-75
2021/03/18 08:58:25;;;;;;;16.75;13.23;;;;;;;12.76;43.25;101126.09;4992665;28;20052;-75
2021/03/18 09:00:52;;;;;;;16.52;12.88;;;;;;;11.55;45.42;101129.00;4988835;28;20061;-76
2021/03/18 09:03:21;;;;;;;20.33;14.07;;;;;;;11.70;45.49;101136.28;4989024;28;20058;-76
2021/03/18 09:05:54;;;;;;;20.58;15.45;;;;;;;11.53;46.13;101132.09;4993558;28;20068;-76
2021/03/18 09:08:23;;;;;;;17.10;14.30;;;;;;;11.18;46.42;101133.47;4979427;28;20058;-76
2021/03/18 09:10:50;;;;;;;20.77;15.57;;;;;;;10.95;47.81;101144.41;4987968;28;20436;-76
2021/03/18 09:13:19;;;;;;;21.95;15.90;;;;;;;10.36;48.75;101129.03;4993344;28;20508;-75
2021/03/18 09:15:47;;;;;;;22.02;15.85;;;;;;;10.14;49.49;101127.56;4991684;28;20050;-76
2021/03/18 09:18:19;;;;;;;18.98;14.98;;;;;;;10.00;49.47;101126.63;4981676;28;20059;-76
2021/03/18 09:20:49;;;;;;;18.30;15.30;;;;;;;9.95;51.35;101129.44;4979245;28;20064;-75
2021/03/18 09:23:18;;;;;;;21.40;15.50;;;;;;;9.97;50.76;101135.53;4990833;28;20514;-75
2021/03/18 09:25:46;;;;;;;19.52;14.80;;;;;;;10.06;51.19;101127.41;4980216;28;20063;-76
2021/03/18 09:28:14;;;;;;;19.30;14.73;;;;;;;10.41;49.42;101128.94;4978290;28;20050;-75
2021/03/18 09:30:44;;;;;;;19.95;14.60;;;;;;;10.74;48.04;101113.19;4982607;28;20055;-75
2021/03/18 09:33:20;;;;;;;16.33;13.75;;;;;;;11.11;47.00;101116.31;4990064;28;20480;-76
2021/03/18 09:35:47;;;;;;;20.55;14.10;;;;;;;11.45;47.25;101112.44;4989508;28;20057;-76
2021/03/18 09:38:19;;;;;;;20.02;13.68;;;;;;;11.59;46.71;101116.09;4994057;28;20062;-75
2021/03/18 09:40:47;;;;;;;17.85;13.63;;;;;;;11.51;47.45;101122.38;4994846;28;20065;-75
2021/03/18 09:43:16;;;;;;;18.40;14.25;;;;;;;11.60;47.07;101119.69;5013577;28;20057;-77
2021/03/18 09:45:51;;;;;;;17.13;13.57;;;;;;;11.70;46.64;101117.56;5011635;28;20053;-76
2021/03/18 09:48:26;;;;;;;16.90;14.38;;;;;;;11.76;46.51;101107.16;5012405;28;20415;-76
2021/03/18 09:50:54;;;;;;;16.52;13.18;;;;;;;12.09;46.40;101127.47;5003590;28;20046;-75
2021/03/18 09:53:24;;;;;;;19.60;13.35;;;;;;;12.32;45.72;101111.66;5008124;28;20065;-75
2021/03/18 09:55:51;;;;;;;20.10;13.13;;;;;;;12.55;45.04;101111.75;5004482;28;20057;-75
2021/03/18 09:58:18;;;;;;;16.45;13.38;;;;;;;13.40;43.12;101100.88;5010875;28;20057;-76
2021/03/18 10:00:46;;;;;;;21.27;13.55;;;;;;;13.88;41.63;101102.16;5010740;28;20479;-75
2021/03/18 10:03:14;;;;;;;20.40;13.63;;;;;;;14.20;40.65;101098.19;5011654;28;20080;-75
2021/03/18 10:05:41;;;;;;;17.15;12.65;;;;;;;14.50;40.66;101099.28;5012244;28;20066;-76
2021/03/18 10:08:08;;;;;;;16.55;10.15;;;;;;;17.43;34.72;101090.59;5004666;28;20058;-76
2021/03/18 10:10:36;;;;;;;11.50;7.70;;;;;;;18.38;31.11;101084.25;5007891;28;20054;-76
2021/03/18 10:13:03;;;;;;;11.48;6.15;;;;;;;17.60;31.02;101080.34;5013357;28;20488;-76
2021/03/18 10:15:31;;;;;;;9.07;5.28;;;;;;;16.67;32.02;101086.03;5003107;28;20065;-76
2021/03/18 10:17:59;;;;;;;9.50;5.75;;;;;;;16.03;33.58;101078.59;5007074;28;20049;-76
2021/03/18 10:20:29;;;;;;;10.20;5.45;;;;;;;15.76;33.62;101074.22;5003177;28;20489;-76
2021/03/18 10:23:03;;;;;;;8.98;5.03;;;;;;;15.49;34.25;101069.81;5013270;28;20058;-76
2021/03/18 10:25:32;;;;;;;8.88;5.07;;;;;;;17.07;30.87;101060.28;5011761;28;20058;-76
2021/03/18 10:28:04;;;;;;;7.93;4.50;;;;;;;20.57;26.48;101053.69;5013817;28;20062;-76
2021/03/18 10:30:32;;;;;;;6.90;4.57;;;;;;;22.80;23.79;101056.72;5008451;28;20507;-76
2021/03/18 10:33:08;;;;;;;7.65;3.67;;;;;;;23.09;21.81;101051.47;5017232;28;20054;-76
2021/03/18 10:35:37;;;;;;;8.52;3.42;;;;;;;21.80;22.84;101049.41;5015239;28;20514;-76
2021/03/18 10:38:06;;;;;;;6.68;3.97;;;;;;;21.46;23.81;101041.50;5014928;28;20511;-77
2021/03/18 10:40:42;;;;;;;7.63;4.38;;;;;;;23.39;22.09;101042.06;5013657;28;20077;-75
2021/03/18 10:43:25;;;;;;;6.20;4.00;;;;;;;25.42;19.28;101030.59;5017182;28;20369;-75
2021/03/18 10:45:54;;;;;;;8.65;4.20;;;;;;;24.78;19.79;101031.13;5015833;28;20058;-76
2021/03/18 10:48:23;;;;;;;8.15;4.50;;;;;;;22.68;21.67;101037.91;5015843;28;20061;-75
2021/03/18 10:50:51;;;;;;;6.80;4.05;;;;;;;21.20;22.90;101038.50;5012951;28;20065;-75
2021/03/18 10:53:20;;;;;;;7.22;4.50;;;;;;;19.83;24.82;101042.97;5016643;28;20057;-77
2021/03/18 10:55:52;;;;;;;6.78;4.55;;;;;;;19.05;25.85;101050.88;5014056;28;20057;-75
2021/03/18 10:58:21;;;;;;;8.13;5.00;;;;;;;19.25;26.36;101040.53;5001618;28;20419;-75
2021/03/18 11:00:57;;;;;;;8.90;4.38;;;;;;;19.73;24.89;101030.19;5010565;28;20057;-75
2021/03/18 11:03:28;;;;;;;6.20;3.70;;;;;;;20.01;24.68;101029.28;5002106;28;20049;-75
2021/03/18 11:05:55;;;;;;;8.18;5.47;;;;;;;19.85;24.91;101027.28;5013150;28;20446;-75
2021/03/18 11:08:28;;;;;;;8.80;5.65;;;;;;;19.19;26.02;101027.84;5013914;28;20049;-75
2021/03/18 11:10:56;;;;;;;8.45;5.60;;;;;;;18.84;26.74;101020.81;5004780;28;21543;-74
2021/03/18 11:13:25;;;;;;;9.05;5.82;;;;;;;19.92;25.17;101015.31;5015901;28;20057;-74
2021/03/18 11:15:57;;;;;;;7.78;5.10;;;;;;;20.51;23.95;101009.88;5013805;28;20062;-77
2021/03/18 11:18:43;;;;;;;8.05;5.45;;;;;;;20.26;24.55;101013.78;5014642;28;20062;-76
2021/03/18 11:21:23;;;;;;;7.35;5.32;;;;;;;19.50;26.07;101004.50;5015530;28;20061;-75
2021/03/18 11:23:52;;;;;;;8.73;5.28;;;;;;;19.86;24.91;101013.97;5013248;28;20054;-76
2021/03/18 11:26:21;;;;;;;7.30;5.30;;;;;;;20.73;23.89;101014.88;5011669;28;20057;-75
2021/03/18 11:28:55;;;;;;;7.43;4.80;;;;;;;22.39;22.08;100999.75;4996844;28;20054;-76
2021/03/18 11:31:25;;;;;;;6.82;4.15;;;;;;;22.72;21.39;101001.03;5004650;28;20057;-75